createdAt,value
2023-05-21T00:01:18.262Z,57.57
2023-05-21T00:03:44.751Z,59.24
2023-05-21T00:06:11.224Z,59.47
2023-05-21T00:08:37.533Z,58.45
2023-05-21T00:11:03.803Z,57.66
2023-05-21T00:13:30.054Z,56.74
2023-05-21T00:15:56.322Z,57.50
2023-05-21T00:18:22.625Z,59.47
2023-05-21T00:20:48.898Z,60.12
2023-05-21T00:23:15.175Z,60.31
2023-05-21T00:25:41.451Z,59.55
2023-05-21T00:28:07.734Z,58.72
2023-05-21T00:30:34.006Z,58.78
2023-05-21T00:33:00.345Z,58.64
2023-05-21T00:35:26.621Z,58.86
2023-05-21T00:37:52.884Z,59.65
2023-05-21T00:40:19.156Z,59.22
2023-05-21T00:42:45.409Z,60.42
2023-05-21T00:45:11.690Z,60.42
2023-05-21T00:47:37.980Z,62.27
2023-05-21T00:50:04.255Z,62.38
2023-05-21T00:52:30.529Z,60.69
2023-05-21T00:54:56.785Z,61.56
2023-05-21T00:57:23.048Z,60.46
2023-05-21T00:59:49.327Z,60.40
2023-05-21T01:02:15.632Z,62.21
2023-05-21T01:04:41.941Z,61.53
2023-05-21T01:07:08.201Z,62.50
2023-05-21T01:09:34.492Z,64.07
2023-05-21T01:12:00.805Z,63.50
2023-05-21T01:14:27.109Z,63.84
2023-05-21T01:16:53.553Z,63.66
2023-05-21T01:19:20.069Z,63.20
2023-05-21T01:21:46.419Z,64.50
2023-05-21T01:24:15.592Z,64.60
2023-05-21T01:26:41.877Z,63.80
2023-05-21T01:29:08.155Z,63.09
2023-05-21T01:31:34.442Z,63.48
2023-05-21T01:34:00.861Z,62.27
2023-05-21T01:36:27.251Z,61.12
2023-05-21T01:38:53.496Z,61.31
2023-05-21T01:41:19.872Z,60.97
2023-05-21T01:43:46.186Z,62.50
2023-05-21T01:46:12.471Z,61.81
2023-05-21T01:48:38.806Z,60.49
2023-05-21T01:51:05.111Z,58.13
2023-05-21T01:53:31.391Z,58.40
2023-05-21T01:55:57.784Z,59.05
2023-05-21T01:58:24.062Z,61.06
2023-05-21T02:00:50.328Z,60.21
2023-05-21T02:03:16.764Z,60.48
2023-05-21T02:05:43.086Z,61.03
2023-05-21T02:08:09.367Z,60.24
2023-05-21T02:10:35.705Z,61.22
2023-05-21T02:13:01.967Z,63.22
2023-05-21T02:15:28.268Z,63.41
2023-05-21T02:17:54.552Z,62.01
2023-05-21T02:20:20.838Z,60.75
2023-05-21T02:22:47.105Z,59.44
2023-05-21T02:25:13.373Z,58.31
2023-05-21T02:27:39.635Z,57.87
2023-05-21T02:30:05.914Z,59.50
2023-05-21T02:32:32.267Z,60.39
2023-05-21T02:34:58.621Z,61.26
2023-05-21T02:37:24.877Z,60.33
2023-05-21T02:39:51.119Z,61.44
2023-05-21T02:42:17.405Z,62.03
2023-05-21T02:44:43.678Z,61.65
2023-05-21T02:47:09.996Z,62.70
2023-05-21T02:49:36.258Z,61.56
2023-05-21T02:52:02.525Z,59.84
2023-05-21T02:54:28.807Z,59.56
2023-05-21T02:56:55.087Z,60.32
2023-05-21T02:59:21.357Z,60.85
2023-05-21T03:01:47.648Z,60.24
2023-05-21T03:04:14.020Z,61.40
2023-05-21T03:06:40.350Z,60.33
2023-05-21T03:09:06.636Z,61.97
2023-05-21T03:11:32.921Z,58.45
2023-05-21T03:13:59.189Z,57.39
2023-05-21T03:16:25.505Z,55.56
2023-05-21T03:18:51.843Z,56.10
2023-05-21T03:21:18.185Z,55.37
2023-05-21T03:23:44.446Z,55.13
2023-05-21T03:26:10.722Z,55.78
2023-05-21T03:28:37.053Z,55.85
2023-05-21T03:31:03.327Z,57.86
2023-05-21T03:33:29.588Z,60.29
2023-05-21T03:35:55.861Z,58.65
2023-05-21T03:38:22.125Z,58.14
2023-05-21T03:40:48.495Z,60.64
2023-05-21T03:43:14.765Z,61.13
2023-05-21T03:45:43.582Z,59.56
2023-05-21T03:48:10.684Z,58.47
2023-05-21T03:50:36.953Z,59.04
2023-05-21T03:53:03.245Z,59.69
2023-05-21T03:55:29.530Z,60.18
2023-05-21T03:57:55.774Z,61.91
2023-05-21T04:00:22.054Z,60.46
2023-05-21T04:02:48.471Z,60.08
2023-05-21T04:05:14.876Z,60.10
2023-05-21T04:07:41.156Z,60.42
2023-05-21T04:10:07.445Z,60.97
2023-05-21T04:12:33.726Z,60.38
2023-05-21T04:15:00.000Z,59.80
2023-05-21T04:17:26.374Z,58.89
2023-05-21T04:19:52.674Z,57.71
2023-05-21T04:22:18.943Z,57.11
2023-05-21T04:24:45.266Z,58.70
2023-05-21T04:27:11.538Z,59.39
2023-05-21T04:29:37.844Z,57.17
2023-05-21T04:32:04.094Z,54.73
2023-05-21T04:34:30.374Z,53.73
2023-05-21T04:36:56.698Z,53.85
2023-05-21T04:39:22.966Z,53.08
2023-05-21T04:41:49.252Z,55.42
2023-05-21T04:44:15.529Z,56.72
2023-05-21T04:46:42.099Z,54.66
2023-05-21T04:49:08.486Z,54.75
2023-05-21T04:51:34.762Z,55.92
2023-05-21T04:54:01.060Z,57.10
2023-05-21T04:56:27.431Z,56.81
2023-05-21T04:58:53.717Z,56.17
2023-05-21T05:01:20.087Z,54.40
2023-05-21T05:03:46.505Z,53.41
2023-05-21T05:06:12.810Z,50.43
2023-05-21T05:08:39.123Z,48.24
2023-05-21T05:11:05.426Z,45.36
2023-05-21T05:13:31.696Z,42.80
2023-05-21T05:15:57.956Z,43.85
2023-05-21T05:18:24.237Z,41.37
2023-05-21T05:20:50.562Z,41.70
2023-05-21T05:23:16.822Z,40.44
2023-05-21T05:25:43.101Z,40.20
2023-05-21T05:28:09.452Z,41.82
2023-05-21T05:30:35.762Z,43.88
2023-05-21T05:33:02.073Z,44.65
2023-05-21T05:35:28.380Z,44.95
2023-05-21T05:37:54.686Z,44.81
2023-05-21T05:40:20.974Z,46.92
2023-05-21T05:42:47.236Z,47.83
2023-05-21T05:45:13.538Z,44.25
2023-05-21T05:47:39.863Z,44.77
2023-05-21T05:50:06.150Z,48.36
2023-05-21T05:52:32.504Z,50.57
2023-05-21T05:54:58.768Z,49.32
2023-05-21T05:57:25.038Z,50.37
2023-05-21T05:59:51.435Z,49.93
2023-05-21T06:02:17.827Z,47.42
2023-05-21T06:04:44.132Z,46.01
2023-05-21T06:07:10.408Z,47.56
2023-05-21T06:09:36.664Z,45.90
2023-05-21T06:12:03.164Z,45.87
2023-05-21T06:14:29.452Z,44.59
2023-05-21T06:16:55.767Z,45.45
2023-05-21T06:19:22.055Z,45.99
2023-05-21T06:21:48.384Z,47.27
2023-05-21T06:24:14.654Z,47.38
2023-05-21T06:26:40.917Z,47.53
2023-05-21T06:29:07.249Z,48.14
2023-05-21T06:31:33.581Z,49.31
2023-05-21T06:33:59.999Z,48.71
2023-05-21T06:36:26.356Z,47.24
2023-05-21T06:38:52.630Z,45.69
2023-05-21T06:41:18.918Z,44.39
2023-05-21T06:43:45.170Z,46.45
2023-05-21T06:46:11.534Z,46.07
2023-05-21T06:48:37.847Z,46.72
2023-05-21T06:51:04.146Z,45.28
2023-05-21T06:53:30.403Z,45.60
2023-05-21T06:55:56.726Z,46.70
2023-05-21T06:58:22.993Z,48.47
2023-05-21T07:00:49.396Z,48.26
2023-05-21T07:03:15.870Z,47.75
2023-05-21T07:05:42.263Z,47.18
2023-05-21T07:08:11.369Z,47.72
2023-05-21T07:10:38.376Z,47.26
2023-05-21T07:13:04.678Z,48.59
2023-05-21T07:15:31.007Z,48.79
2023-05-21T07:17:57.358Z,46.36
2023-05-21T07:20:23.697Z,45.53
2023-05-21T07:22:49.974Z,45.47
2023-05-21T07:25:16.242Z,44.96
2023-05-21T07:27:42.516Z,48.49
2023-05-21T07:30:08.846Z,47.28
2023-05-21T07:32:35.158Z,48.01
2023-05-21T07:35:01.469Z,48.21
2023-05-21T07:37:27.795Z,47.16
2023-05-21T07:39:54.128Z,47.29
2023-05-21T07:42:20.397Z,46.49
2023-05-21T07:44:46.651Z,46.30
2023-05-21T07:47:12.951Z,47.92
2023-05-21T07:49:39.253Z,44.86
2023-05-21T07:52:05.594Z,43.08
2023-05-21T07:54:31.884Z,43.66
2023-05-21T07:56:58.148Z,42.54
2023-05-21T07:59:24.484Z,46.32
2023-05-21T08:01:50.768Z,46.43
2023-05-21T08:04:17.207Z,44.27
2023-05-21T08:06:43.624Z,43.55
2023-05-21T08:09:09.952Z,44.39
2023-05-21T08:11:36.254Z,42.87
2023-05-21T08:14:02.491Z,40.51
2023-05-21T08:16:28.796Z,41.90
2023-05-21T08:18:55.102Z,41.75
2023-05-21T08:21:21.417Z,44.56
2023-05-21T08:23:47.752Z,42.49
2023-05-21T08:26:14.010Z,43.76
2023-05-21T08:28:40.310Z,43.91
2023-05-21T08:31:07.916Z,44.41
2023-05-21T08:33:34.165Z,45.92
2023-05-21T08:36:01.822Z,44.96
2023-05-21T08:38:30.103Z,44.53
2023-05-21T08:40:56.766Z,42.84
2023-05-21T08:43:23.139Z,43.42
2023-05-21T08:45:49.463Z,45.15
2023-05-21T08:48:15.727Z,44.91
2023-05-21T08:50:41.998Z,43.73
2023-05-21T08:53:15.798Z,44.98
2023-05-21T08:55:51.700Z,45.51
2023-05-21T08:58:18.055Z,43.76
2023-05-21T09:00:44.321Z,44.08
2023-05-21T09:03:10.679Z,43.17
2023-05-21T09:05:37.293Z,43.49
2023-05-21T09:08:03.812Z,41.92
2023-05-21T09:10:30.111Z,40.82
2023-05-21T09:12:56.375Z,41.31
2023-05-21T09:15:22.669Z,43.20
2023-05-21T09:17:48.991Z,43.28
2023-05-21T09:20:15.440Z,41.60
2023-05-21T09:22:41.739Z,42.38
2023-05-21T09:25:08.018Z,39.41
2023-05-21T09:27:34.408Z,41.15
2023-05-21T09:30:00.674Z,40.37
2023-05-21T09:32:26.977Z,42.91
2023-05-21T09:34:53.239Z,38.34
2023-05-21T09:37:27.153Z,39.24
2023-05-21T09:39:54.066Z,41.18
2023-05-21T09:42:20.357Z,41.23
2023-05-21T09:44:46.608Z,41.06
2023-05-21T09:47:12.931Z,41.01
2023-05-21T09:49:39.186Z,41.72
2023-05-21T09:52:05.469Z,42.25
2023-05-21T09:54:31.773Z,41.34
2023-05-21T09:56:58.080Z,38.93
2023-05-21T09:59:24.382Z,41.71
2023-05-21T10:01:50.861Z,38.87
2023-05-21T10:04:17.236Z,39.29
2023-05-21T10:06:43.602Z,39.67
2023-05-21T10:09:09.889Z,39.16
2023-05-21T10:11:36.149Z,38.29
2023-05-21T10:14:02.418Z,41.90
2023-05-21T10:16:28.720Z,40.50
2023-05-21T10:18:55.108Z,41.45
2023-05-21T10:21:21.417Z,38.41
2023-05-21T10:23:47.698Z,42.92
2023-05-21T10:26:13.978Z,40.26
2023-05-21T10:28:40.280Z,40.71
2023-05-21T10:31:06.544Z,39.09
2023-05-21T10:33:32.890Z,40.25
2023-05-21T10:35:59.188Z,39.77
2023-05-21T10:38:25.477Z,38.47
2023-05-21T10:40:51.751Z,40.00
2023-05-21T10:43:18.024Z,37.10
2023-05-21T10:45:44.337Z,39.48
2023-05-21T10:48:10.670Z,36.59
2023-05-21T10:50:37.176Z,37.33
2023-05-21T10:53:03.588Z,37.85
2023-05-21T10:55:29.825Z,35.36
2023-05-21T10:57:56.129Z,37.74
2023-05-21T11:00:22.478Z,38.11
2023-05-21T11:02:48.876Z,38.83
2023-05-21T11:05:15.325Z,38.78
2023-05-21T11:07:41.591Z,38.43
2023-05-21T11:10:08.784Z,37.77
2023-05-21T11:12:35.053Z,38.95
2023-05-21T11:15:01.313Z,38.75
2023-05-21T11:17:27.650Z,38.64
2023-05-21T11:19:53.973Z,38.18
2023-05-21T11:22:20.292Z,39.00
2023-05-21T11:24:47.425Z,36.12
2023-05-21T11:27:15.091Z,36.25
2023-05-21T11:29:41.387Z,34.33
2023-05-21T11:32:07.717Z,35.84
2023-05-21T11:34:33.988Z,35.04
2023-05-21T11:37:00.305Z,36.30
2023-05-21T11:39:26.576Z,38.39
2023-05-21T11:41:52.827Z,39.46
2023-05-21T11:44:19.114Z,37.59
2023-05-21T11:46:45.463Z,38.11
2023-05-21T11:49:11.954Z,38.82
2023-05-21T11:51:38.311Z,37.04
2023-05-21T11:54:04.613Z,37.32
2023-05-21T11:56:30.883Z,35.75
2023-05-21T11:58:57.155Z,36.64
2023-05-21T12:01:23.469Z,35.47
2023-05-21T12:03:49.881Z,36.47
2023-05-21T12:06:16.261Z,37.67
2023-05-21T12:08:42.532Z,36.80
2023-05-21T12:11:08.804Z,37.72
2023-05-21T12:13:35.113Z,38.13
2023-05-21T12:16:01.483Z,38.06
2023-05-21T12:18:27.760Z,37.85
2023-05-21T12:20:54.021Z,38.09
2023-05-21T12:23:20.322Z,39.99
2023-05-21T12:25:46.672Z,38.42
2023-05-21T12:28:12.930Z,37.99
2023-05-21T12:30:39.359Z,40.97
2023-05-21T12:33:05.755Z,37.89
2023-05-21T12:35:32.260Z,38.22
2023-05-21T12:37:58.645Z,38.99
2023-05-21T12:40:24.941Z,39.04
2023-05-21T12:42:51.214Z,36.58
2023-05-21T12:45:17.567Z,37.10
2023-05-21T12:47:43.871Z,37.74
2023-05-21T12:50:10.368Z,38.04
2023-05-21T12:52:38.621Z,38.60
2023-05-21T12:55:05.535Z,38.78
2023-05-21T12:57:32.923Z,39.58
2023-05-21T12:59:59.207Z,37.82
2023-05-21T13:02:25.506Z,38.70
2023-05-21T13:04:51.806Z,37.53
2023-05-21T13:07:18.056Z,37.21
2023-05-21T13:09:44.501Z,37.28
2023-05-21T13:12:10.786Z,39.60
2023-05-21T13:14:37.056Z,37.78
2023-05-21T13:17:03.345Z,38.45
2023-05-21T13:19:31.733Z,38.18
2023-05-21T13:21:58.137Z,38.41
2023-05-21T13:24:24.412Z,37.99
2023-05-21T13:26:50.700Z,36.94
2023-05-21T13:29:16.976Z,37.41
2023-05-21T13:31:43.254Z,37.91
2023-05-21T13:34:09.578Z,36.78
2023-05-21T13:36:35.907Z,37.56
2023-05-21T13:39:02.170Z,36.97
2023-05-21T13:41:28.431Z,37.17
2023-05-21T13:43:54.761Z,36.23
2023-05-21T13:46:21.070Z,37.33
2023-05-21T13:48:47.408Z,38.06
2023-05-21T13:51:19.880Z,36.41
2023-05-21T13:53:52.060Z,37.10
2023-05-21T13:56:18.347Z,37.01
2023-05-21T13:58:44.644Z,36.17
2023-05-21T14:01:10.945Z,35.67
2023-05-21T14:03:37.333Z,37.22
2023-05-21T14:06:03.616Z,37.65
2023-05-21T14:08:29.874Z,37.44
2023-05-21T14:10:56.146Z,37.08
2023-05-21T14:13:22.515Z,36.62
2023-05-21T14:15:48.797Z,37.39
2023-05-21T14:18:15.106Z,38.34
2023-05-21T14:20:41.414Z,35.92
2023-05-21T14:23:07.699Z,37.81
2023-05-21T14:25:34.063Z,37.13
2023-05-21T14:28:00.432Z,37.20
2023-05-21T14:30:26.699Z,36.78
2023-05-21T14:32:53.085Z,37.25
2023-05-21T14:35:19.422Z,37.54
2023-05-21T14:37:45.682Z,35.31
2023-05-21T14:40:11.965Z,35.27
2023-05-21T14:42:38.228Z,35.39
2023-05-21T14:45:17.403Z,35.74
2023-05-21T14:47:45.176Z,35.15
2023-05-21T14:50:11.478Z,35.82
2023-05-21T14:52:37.755Z,38.12
2023-05-21T14:55:04.022Z,37.75
2023-05-21T14:57:30.289Z,36.45
2023-05-21T14:59:56.592Z,36.60
2023-05-21T15:02:22.922Z,36.96
2023-05-21T15:04:49.342Z,33.88
2023-05-21T15:07:15.624Z,36.15
2023-05-21T15:09:41.988Z,38.93
2023-05-21T15:12:08.239Z,36.29
2023-05-21T15:14:34.503Z,34.37
2023-05-21T15:17:00.766Z,36.14
2023-05-21T15:19:27.178Z,37.66
2023-05-21T15:21:53.480Z,33.53
2023-05-21T15:24:19.814Z,34.89
2023-05-21T15:26:46.151Z,34.17
2023-05-21T15:29:12.411Z,33.99
2023-05-21T15:31:38.680Z,35.70
2023-05-21T15:34:04.970Z,35.31
2023-05-21T15:36:31.260Z,35.92
2023-05-21T15:38:57.529Z,34.25
2023-05-21T15:41:23.914Z,36.19
2023-05-21T15:43:50.202Z,34.53
2023-05-21T15:46:16.518Z,35.89
2023-05-21T15:48:42.903Z,36.34
2023-05-21T15:51:09.191Z,37.67
2023-05-21T15:53:35.458Z,35.80
2023-05-21T15:56:01.919Z,36.13
2023-05-21T15:58:28.173Z,36.70
2023-05-21T16:00:54.482Z,36.71
2023-05-21T16:03:20.945Z,35.84
2023-05-21T16:05:47.281Z,36.07
2023-05-21T16:08:13.565Z,37.60
2023-05-21T16:10:39.976Z,37.98
2023-05-21T16:13:06.329Z,38.15
2023-05-21T16:15:32.608Z,37.97
2023-05-21T16:17:58.988Z,38.55
2023-05-21T16:20:27.248Z,37.06
2023-05-21T16:22:53.541Z,35.77
2023-05-21T16:25:19.847Z,35.82
2023-05-21T16:27:46.250Z,36.84
2023-05-21T16:30:14.236Z,34.67
2023-05-21T16:32:40.719Z,35.30
2023-05-21T16:35:07.126Z,34.42
2023-05-21T16:37:33.411Z,34.92
2023-05-21T16:39:59.749Z,35.24
2023-05-21T16:42:26.027Z,35.82
2023-05-21T16:44:52.304Z,35.06
2023-05-21T16:47:18.585Z,34.64
2023-05-21T16:49:44.886Z,39.02
2023-05-21T16:52:11.135Z,38.56
2023-05-21T16:54:37.444Z,38.90
2023-05-21T16:57:03.725Z,35.90
2023-05-21T16:59:30.001Z,34.89
2023-05-21T17:01:56.555Z,35.48
2023-05-21T17:04:22.995Z,38.22
2023-05-21T17:06:49.269Z,39.88
2023-05-21T17:09:18.047Z,40.07
2023-05-21T17:11:45.025Z,37.97
2023-05-21T17:14:13.520Z,36.10
2023-05-21T17:16:44.091Z,38.29
2023-05-21T17:19:10.423Z,39.23
2023-05-21T17:21:36.753Z,39.58
2023-05-21T17:24:03.098Z,39.48
2023-05-21T17:26:29.397Z,39.16
2023-05-21T17:28:55.701Z,39.64
2023-05-21T17:31:22.188Z,41.90
2023-05-21T17:33:48.640Z,42.56
2023-05-21T17:36:14.916Z,41.92
2023-05-21T17:38:41.298Z,44.51
2023-05-21T17:41:07.585Z,41.91
2023-05-21T17:43:33.860Z,43.41
2023-05-21T17:46:00.239Z,43.04
2023-05-21T17:48:26.636Z,43.78
2023-05-21T17:50:52.982Z,44.40
2023-05-21T17:53:19.314Z,42.62
2023-05-21T17:55:45.611Z,44.42
2023-05-21T17:58:12.015Z,45.17
2023-05-21T18:00:38.450Z,45.34
2023-05-21T18:03:05.026Z,44.58
2023-05-21T18:05:31.334Z,44.48
2023-05-21T18:07:57.685Z,43.24
2023-05-21T18:10:24.025Z,44.30
2023-05-21T18:12:50.323Z,44.75
2023-05-21T18:15:16.648Z,44.60
2023-05-21T18:17:43.057Z,46.23
2023-05-21T18:20:09.373Z,45.61
2023-05-21T18:22:35.800Z,43.35
2023-05-21T18:25:02.166Z,43.57
2023-05-21T18:27:28.501Z,43.73
2023-05-21T18:29:54.839Z,45.04
2023-05-21T18:32:21.303Z,43.26
2023-05-21T18:34:47.667Z,44.54
2023-05-21T18:37:14.104Z,43.75
2023-05-21T18:39:40.525Z,44.25
2023-05-21T18:42:13.224Z,43.13
2023-05-21T18:44:40.186Z,45.59
2023-05-21T18:47:06.669Z,43.46
2023-05-21T18:49:33.220Z,44.37
2023-05-21T18:51:59.931Z,44.80
2023-05-21T18:54:26.474Z,45.89
2023-05-21T18:56:52.938Z,44.56
2023-05-21T18:59:19.325Z,44.14
2023-05-21T19:01:45.734Z,43.02
2023-05-21T19:04:12.201Z,43.68
2023-05-21T19:06:38.662Z,43.25
2023-05-21T19:09:05.114Z,43.61
2023-05-21T19:11:33.943Z,43.09
2023-05-21T19:14:00.472Z,42.70
2023-05-21T19:16:27.014Z,43.58
2023-05-21T19:18:53.584Z,44.42
2023-05-21T19:21:20.247Z,44.23
2023-05-21T19:23:52.680Z,43.38
2023-05-21T19:26:20.084Z,43.40
2023-05-21T19:28:48.327Z,43.54
2023-05-21T19:31:14.699Z,43.49
2023-05-21T19:33:41.313Z,43.50
2023-05-21T19:36:07.907Z,45.28
2023-05-21T19:38:34.437Z,44.38
2023-05-21T19:41:00.987Z,44.41
2023-05-21T19:43:27.555Z,45.26
2023-05-21T19:45:54.087Z,44.74
2023-05-21T19:48:20.670Z,45.39
2023-05-21T19:50:47.059Z,45.09
2023-05-21T19:53:13.992Z,43.70
2023-05-21T19:55:40.411Z,43.45
2023-05-21T19:58:06.915Z,43.40
2023-05-21T20:00:33.393Z,44.79
2023-05-21T20:03:00.181Z,44.71
2023-05-21T20:05:26.647Z,44.89
2023-05-21T20:07:53.077Z,45.03
2023-05-21T20:10:19.643Z,44.37
2023-05-21T20:12:46.054Z,45.02
2023-05-21T20:15:12.460Z,42.85
2023-05-21T20:17:40.376Z,45.13
2023-05-21T20:20:08.687Z,44.23
2023-05-21T20:22:35.114Z,44.72
2023-05-21T20:25:01.490Z,46.20
2023-05-21T20:27:27.805Z,43.51
2023-05-21T20:29:54.198Z,42.47
2023-05-21T20:32:20.558Z,43.13
2023-05-21T20:35:01.445Z,43.04
2023-05-21T20:37:28.335Z,41.99
2023-05-21T20:39:54.715Z,40.35
2023-05-21T20:42:21.098Z,43.70
2023-05-21T20:44:47.451Z,44.07
2023-05-21T20:47:13.814Z,45.17
2023-05-21T20:49:40.088Z,45.27
2023-05-21T20:52:06.355Z,44.72
2023-05-21T20:54:32.639Z,44.49
2023-05-21T20:56:58.926Z,44.96
2023-05-21T20:59:25.181Z,44.93
2023-05-21T21:01:51.483Z,47.15
2023-05-21T21:04:17.770Z,48.10
2023-05-21T21:06:44.030Z,47.12
2023-05-21T21:09:10.389Z,47.38
2023-05-21T21:11:36.655Z,47.86
2023-05-21T21:14:02.901Z,49.71
2023-05-21T21:16:29.246Z,47.90
2023-05-21T21:18:55.587Z,47.51
2023-05-21T21:21:21.879Z,49.10
2023-05-21T21:23:48.164Z,50.61
2023-05-21T21:26:14.430Z,48.92
2023-05-21T21:28:40.747Z,49.71
2023-05-21T21:31:07.075Z,49.42
2023-05-21T21:33:33.379Z,49.38
2023-05-21T21:35:59.663Z,46.81
2023-05-21T21:38:25.940Z,47.97
2023-05-21T21:40:52.208Z,47.33
2023-05-21T21:43:18.468Z,46.11
2023-05-21T21:45:44.792Z,44.28
2023-05-21T21:48:11.271Z,44.21
2023-05-21T21:50:37.963Z,44.39
2023-05-21T21:53:04.440Z,43.63
2023-05-21T21:55:30.705Z,44.27
2023-05-21T21:57:57.620Z,46.55
2023-05-21T22:00:23.901Z,45.46
2023-05-21T22:02:50.413Z,45.39
2023-05-21T22:05:16.737Z,47.01
2023-05-21T22:07:43.032Z,48.02
2023-05-21T22:10:09.406Z,46.60
2023-05-21T22:12:35.692Z,47.27
2023-05-21T22:15:01.985Z,45.58
2023-05-21T22:17:28.351Z,46.60
2023-05-21T22:19:54.649Z,46.62
2023-05-21T22:22:20.969Z,46.84
2023-05-21T22:24:47.284Z,47.55
2023-05-21T22:27:13.572Z,51.05
2023-05-21T22:29:39.886Z,51.97
2023-05-21T22:32:06.228Z,51.18
2023-05-21T22:34:32.495Z,50.29
2023-05-21T22:36:58.751Z,50.36
2023-05-21T22:39:25.007Z,50.00
2023-05-21T22:41:51.333Z,50.82
2023-05-21T22:44:17.654Z,50.49
2023-05-21T22:46:44.029Z,49.44
2023-05-21T22:49:10.362Z,48.92
2023-05-21T22:51:36.658Z,48.17
2023-05-21T22:54:02.963Z,48.41
2023-05-21T22:56:29.295Z,49.69
2023-05-21T22:58:55.569Z,50.92
2023-05-21T23:01:21.886Z,51.64
2023-05-21T23:03:48.208Z,52.79
2023-05-21T23:06:14.480Z,53.33
2023-05-21T23:08:40.754Z,53.26
2023-05-21T23:11:07.113Z,53.21
2023-05-21T23:13:33.374Z,51.77
2023-05-21T23:15:59.712Z,50.94
2023-05-21T23:18:26.087Z,50.20
2023-05-21T23:20:52.407Z,51.88
2023-05-21T23:23:18.720Z,49.45
2023-05-21T23:25:45.040Z,51.37
2023-05-21T23:28:11.337Z,52.19
2023-05-21T23:30:37.836Z,51.14
2023-05-21T23:33:04.334Z,52.09
2023-05-21T23:35:30.637Z,51.89
2023-05-21T23:37:56.947Z,51.96
2023-05-21T23:40:23.335Z,51.51
2023-05-21T23:42:49.615Z,49.83
2023-05-21T23:45:15.892Z,50.27
2023-05-21T23:47:42.214Z,51.61
2023-05-21T23:50:08.528Z,51.38
2023-05-21T23:52:34.851Z,51.17
2023-05-21T23:55:01.119Z,50.52
2023-05-21T23:57:27.413Z,52.24
2023-05-21T23:59:53.679Z,52.77
